sensor_id;sensor_type;location;lat;lon;timestamp;P1;durP1;ratioP1;P2;durP2;ratioP2
2892;SDS011;1456;51.840;12.184;2024-03-17T00:02:21;6.33;;;5.70;;
2892;SDS011;1456;51.840;12.184;2024-03-17T00:04:46;5.93;;;5.43;;
2892;SDS011;1456;51.840;12.184;2024-03-17T00:07:12;6.53;;;6.03;;
2892;SDS011;1456;51.840;12.184;2024-03-17T00:09:38;5.40;;;5.10;;
2892;SDS011;1456;51.840;12.184;2024-03-17T00:12:07;7.17;;;6.47;;
2892;SDS011;1456;51.840;12.184;2024-03-17T00:14:34;6.43;;;5.83;;
2892;SDS011;1456;51.840;12.184;2024-03-17T00:17:02;6.33;;;5.93;;
2892;SDS011;1456;51.840;12.184;2024-03-17T00:19:28;6.17;;;5.70;;
2892;SDS011;1456;51.840;12.184;2024-03-17T00:21:54;5.33;;;4.83;;
2892;SDS011;1456;51.840;12.184;2024-03-17T00:24:19;6.67;;;6.10;;
2892;SDS011;1456;51.840;12.184;2024-03-17T00:26:48;6.90;;;5.80;;
2892;SDS011;1456;51.840;12.184;2024-03-17T00:29:14;6.20;;;5.70;;
2892;SDS011;1456;51.840;12.184;2024-03-17T00:31:40;9.17;;;5.77;;
2892;SDS011;1456;51.840;12.184;2024-03-17T00:34:06;7.00;;;6.13;;
2892;SDS011;1456;51.840;12.184;2024-03-17T00:36:32;6.63;;;6.17;;
2892;SDS011;1456;51.840;12.184;2024-03-17T00:38:58;7.10;;;6.03;;
2892;SDS011;1456;51.840;12.184;2024-03-17T00:41:23;7.13;;;6.13;;
2892;SDS011;1456;51.840;12.184;2024-03-17T00:43:49;7.43;;;6.63;;
2892;SDS011;1456;51.840;12.184;2024-03-17T00:46:17;6.60;;;6.10;;
2892;SDS011;1456;51.840;12.184;2024-03-17T00:48:46;10.20;;;6.33;;
2892;SDS011;1456;51.840;12.184;2024-03-17T00:51:13;6.57;;;6.00;;
2892;SDS011;1456;51.840;12.184;2024-03-17T00:53:39;8.13;;;7.33;;
2892;SDS011;1456;51.840;12.184;2024-03-17T00:56:05;8.73;;;6.70;;
2892;SDS011;1456;51.840;12.184;2024-03-17T00:58:31;7.40;;;6.83;;
2892;SDS011;1456;51.840;12.184;2024-03-17T01:00:57;7.60;;;6.13;;
2892;SDS011;1456;51.840;12.184;2024-03-17T01:03:23;6.67;;;6.07;;
2892;SDS011;1456;51.840;12.184;2024-03-17T01:05:48;7.93;;;6.60;;
2892;SDS011;1456;51.840;12.184;2024-03-17T01:08:17;8.63;;;5.40;;
2892;SDS011;1456;51.840;12.184;2024-03-17T01:10:43;6.20;;;5.80;;
2892;SDS011;1456;51.840;12.184;2024-03-17T01:13:10;7.10;;;6.50;;
2892;SDS011;1456;51.840;12.184;2024-03-17T01:15:36;6.87;;;6.27;;
2892;SDS011;1456;51.840;12.184;2024-03-17T01:18:02;13.53;;;6.17;;
2892;SDS011;1456;51.840;12.184;2024-03-17T01:20:32;10.63;;;6.47;;
2892;SDS011;1456;51.840;12.184;2024-03-17T01:22:59;7.03;;;6.53;;
2892;SDS011;1456;51.840;12.184;2024-03-17T01:25:25;11.30;;;6.10;;
2892;SDS011;1456;51.840;12.184;2024-03-17T01:27:51;7.00;;;6.30;;
2892;SDS011;1456;51.840;12.184;2024-03-17T01:30:17;6.37;;;5.97;;
2892;SDS011;1456;51.840;12.184;2024-03-17T01:32:44;10.10;;;6.80;;
2892;SDS011;1456;51.840;12.184;2024-03-17T01:35:10;7.03;;;6.43;;
2892;SDS011;1456;51.840;12.184;2024-03-17T01:37:37;7.07;;;6.60;;
2892;SDS011;1456;51.840;12.184;2024-03-17T01:40:03;10.00;;;6.60;;
2892;SDS011;1456;51.840;12.184;2024-03-17T01:42:38;7.90;;;7.00;;
2892;SDS011;1456;51.840;12.184;2024-03-17T01:45:18;9.23;;;7.10;;
2892;SDS011;1456;51.840;12.184;2024-03-17T01:47:45;7.87;;;6.73;;
2892;SDS011;1456;51.840;12.184;2024-03-17T01:50:11;9.33;;;7.67;;
2892;SDS011;1456;51.840;12.184;2024-03-17T01:52:38;7.87;;;6.63;;
2892;SDS011;1456;51.840;12.184;2024-03-17T01:55:04;6.63;;;6.20;;
2892;SDS011;1456;51.840;12.184;2024-03-17T01:57:32;9.63;;;7.20;;
2892;SDS011;1456;51.840;12.184;2024-03-17T01:59:58;7.23;;;6.40;;
2892;SDS011;1456;51.840;12.184;2024-03-17T02:02:25;9.00;;;6.60;;
2892;SDS011;1456;51.840;12.184;2024-03-17T02:04:50;8.10;;;6.97;;
2892;SDS011;1456;51.840;12.184;2024-03-17T02:07:16;6.80;;;6.10;;
2892;SDS011;1456;51.840;12.184;2024-03-17T02:09:42;7.00;;;6.30;;
2892;SDS011;1456;51.840;12.184;2024-03-17T02:12:08;7.27;;;6.50;;
2892;SDS011;1456;51.840;12.184;2024-03-17T02:14:34;7.00;;;6.47;;
2892;SDS011;1456;51.840;12.184;2024-03-17T02:17:00;8.57;;;7.07;;
2892;SDS011;1456;51.840;12.184;2024-03-17T02:19:26;6.83;;;6.13;;
2892;SDS011;1456;51.840;12.184;2024-03-17T02:21:51;8.40;;;6.63;;
2892;SDS011;1456;51.840;12.184;2024-03-17T02:24:17;12.10;;;7.00;;
2892;SDS011;1456;51.840;12.184;2024-03-17T02:26:42;7.50;;;6.83;;
2892;SDS011;1456;51.840;12.184;2024-03-17T02:29:09;7.00;;;6.37;;
2892;SDS011;1456;51.840;12.184;2024-03-17T02:31:34;8.10;;;7.00;;
2892;SDS011;1456;51.840;12.184;2024-03-17T02:34:00;7.80;;;7.00;;
2892;SDS011;1456;51.840;12.184;2024-03-17T02:36:25;7.30;;;6.10;;
2892;SDS011;1456;51.840;12.184;2024-03-17T02:38:51;7.40;;;6.80;;
2892;SDS011;1456;51.840;12.184;2024-03-17T02:41:35;9.00;;;6.70;;
2892;SDS011;1456;51.840;12.184;2024-03-17T02:44:01;9.10;;;6.70;;
2892;SDS011;1456;51.840;12.184;2024-03-17T02:46:27;7.03;;;6.33;;
2892;SDS011;1456;51.840;12.184;2024-03-17T02:48:53;9.27;;;7.17;;
2892;SDS011;1456;51.840;12.184;2024-03-17T02:51:19;10.17;;;7.00;;
2892;SDS011;1456;51.840;12.184;2024-03-17T02:53:46;7.07;;;6.37;;
2892;SDS011;1456;51.840;12.184;2024-03-17T02:56:14;6.80;;;6.30;;
2892;SDS011;1456;51.840;12.184;2024-03-17T02:58:43;7.30;;;6.20;;
2892;SDS011;1456;51.840;12.184;2024-03-17T03:01:14;10.90;;;7.93;;
2892;SDS011;1456;51.840;12.184;2024-03-17T03:03:40;7.90;;;7.03;;
2892;SDS011;1456;51.840;12.184;2024-03-17T03:06:06;10.93;;;7.20;;
2892;SDS011;1456;51.840;12.184;2024-03-17T03:08:36;7.20;;;6.50;;
2892;SDS011;1456;51.840;12.184;2024-03-17T03:11:09;7.90;;;7.10;;
2892;SDS011;1456;51.840;12.184;2024-03-17T03:13:37;10.23;;;6.63;;
2892;SDS011;1456;51.840;12.184;2024-03-17T03:16:05;8.40;;;7.50;;
2892;SDS011;1456;51.840;12.184;2024-03-17T03:18:36;10.73;;;6.63;;
2892;SDS011;1456;51.840;12.184;2024-03-17T03:21:02;8.20;;;7.13;;
2892;SDS011;1456;51.840;12.184;2024-03-17T03:23:28;7.97;;;7.20;;
2892;SDS011;1456;51.840;12.184;2024-03-17T03:25:57;9.03;;;7.30;;
2892;SDS011;1456;51.840;12.184;2024-03-17T03:28:24;9.13;;;7.40;;
2892;SDS011;1456;51.840;12.184;2024-03-17T03:30:50;9.70;;;6.90;;
2892;SDS011;1456;51.840;12.184;2024-03-17T03:33:19;8.43;;;7.73;;
2892;SDS011;1456;51.840;12.184;2024-03-17T03:35:45;7.37;;;6.60;;
2892;SDS011;1456;51.840;12.184;2024-03-17T03:38:12;8.57;;;7.23;;
2892;SDS011;1456;51.840;12.184;2024-03-17T03:40:39;11.30;;;7.07;;
2892;SDS011;1456;51.840;12.184;2024-03-17T03:43:05;10.30;;;6.60;;
2892;SDS011;1456;51.840;12.184;2024-03-17T03:45:30;9.07;;;7.50;;
2892;SDS011;1456;51.840;12.184;2024-03-17T03:47:56;14.03;;;6.37;;
2892;SDS011;1456;51.840;12.184;2024-03-17T03:50:22;10.77;;;7.43;;
2892;SDS011;1456;51.840;12.184;2024-03-17T03:52:48;7.43;;;6.60;;
2892;SDS011;1456;51.840;12.184;2024-03-17T03:55:15;7.10;;;6.60;;
2892;SDS011;1456;51.840;12.184;2024-03-17T03:57:42;6.63;;;5.93;;
2892;SDS011;1456;51.840;12.184;2024-03-17T04:00:08;7.30;;;5.80;;
2892;SDS011;1456;51.840;12.184;2024-03-17T04:02:37;13.30;;;7.23;;
2892;SDS011;1456;51.840;12.184;2024-03-17T04:05:07;9.30;;;7.23;;
2892;SDS011;1456;51.840;12.184;2024-03-17T04:07:33;8.60;;;6.67;;
2892;SDS011;1456;51.840;12.184;2024-03-17T04:09:59;10.43;;;6.67;;
2892;SDS011;1456;51.840;12.184;2024-03-17T04:12:25;12.50;;;6.73;;
2892;SDS011;1456;51.840;12.184;2024-03-17T04:14:52;10.93;;;5.90;;
2892;SDS011;1456;51.840;12.184;2024-03-17T04:17:21;8.00;;;6.17;;
2892;SDS011;1456;51.840;12.184;2024-03-17T04:19:48;8.63;;;5.03;;
2892;SDS011;1456;51.840;12.184;2024-03-17T04:22:17;5.67;;;5.17;;
2892;SDS011;1456;51.840;12.184;2024-03-17T04:24:44;8.43;;;6.50;;
2892;SDS011;1456;51.840;12.184;2024-03-17T04:27:11;8.87;;;6.67;;
2892;SDS011;1456;51.840;12.184;2024-03-17T04:29:38;7.30;;;5.70;;
2892;SDS011;1456;51.840;12.184;2024-03-17T04:32:04;8.63;;;5.80;;
2892;SDS011;1456;51.840;12.184;2024-03-17T04:34:30;8.63;;;6.00;;
2892;SDS011;1456;51.840;12.184;2024-03-17T04:36:56;7.13;;;6.40;;
2892;SDS011;1456;51.840;12.184;2024-03-17T04:39:23;8.00;;;5.67;;
2892;SDS011;1456;51.840;12.184;2024-03-17T04:41:48;13.33;;;5.87;;
2892;SDS011;1456;51.840;12.184;2024-03-17T04:44:15;9.33;;;7.47;;
2892;SDS011;1456;51.840;12.184;2024-03-17T04:46:41;9.53;;;6.53;;
2892;SDS011;1456;51.840;12.184;2024-03-17T04:49:06;5.93;;;5.47;;
2892;SDS011;1456;51.840;12.184;2024-03-17T04:51:33;7.43;;;6.73;;
2892;SDS011;1456;51.840;12.184;2024-03-17T04:53:59;7.17;;;5.90;;
2892;SDS011;1456;51.840;12.184;2024-03-17T04:56:25;12.43;;;6.30;;
2892;SDS011;1456;51.840;12.184;2024-03-17T04:58:50;11.77;;;5.83;;
2892;SDS011;1456;51.840;12.184;2024-03-17T05:01:16;14.57;;;6.03;;
2892;SDS011;1456;51.840;12.184;2024-03-17T05:03:42;9.70;;;5.80;;
2892;SDS011;1456;51.840;12.184;2024-03-17T05:06:08;5.93;;;5.27;;
2892;SDS011;1456;51.840;12.184;2024-03-17T05:08:33;10.43;;;6.60;;
2892;SDS011;1456;51.840;12.184;2024-03-17T05:11:00;10.60;;;5.47;;
2892;SDS011;1456;51.840;12.184;2024-03-17T05:13:29;8.13;;;5.37;;
2892;SDS011;1456;51.840;12.184;2024-03-17T05:16:00;10.43;;;5.80;;
2892;SDS011;1456;51.840;12.184;2024-03-17T05:18:26;15.07;;;5.90;;
2892;SDS011;1456;51.840;12.184;2024-03-17T05:23:28;9.97;;;4.77;;
2892;SDS011;1456;51.840;12.184;2024-03-17T05:25:59;6.97;;;3.80;;
2892;SDS011;1456;51.840;12.184;2024-03-17T05:28:25;7.77;;;4.80;;
2892;SDS011;1456;51.840;12.184;2024-03-17T05:30:52;6.40;;;5.47;;
2892;SDS011;1456;51.840;12.184;2024-03-17T05:33:18;12.17;;;5.17;;
2892;SDS011;1456;51.840;12.184;2024-03-17T05:35:53;10.40;;;4.93;;
2892;SDS011;1456;51.840;12.184;2024-03-17T05:38:22;6.33;;;4.80;;
2892;SDS011;1456;51.840;12.184;2024-03-17T05:43:18;8.57;;;4.40;;
2892;SDS011;1456;51.840;12.184;2024-03-17T05:45:44;8.20;;;4.30;;
2892;SDS011;1456;51.840;12.184;2024-03-17T05:48:10;9.17;;;4.80;;
2892;SDS011;1456;51.840;12.184;2024-03-17T05:50:35;6.37;;;4.67;;
2892;SDS011;1456;51.840;12.184;2024-03-17T05:53:01;10.73;;;4.80;;
2892;SDS011;1456;51.840;12.184;2024-03-17T05:55:28;5.27;;;4.77;;
2892;SDS011;1456;51.840;12.184;2024-03-17T05:57:53;7.93;;;4.67;;
2892;SDS011;1456;51.840;12.184;2024-03-17T06:00:19;5.63;;;4.23;;
2892;SDS011;1456;51.840;12.184;2024-03-17T06:02:45;9.93;;;4.50;;
2892;SDS011;1456;51.840;12.184;2024-03-17T06:05:12;7.50;;;4.33;;
2892;SDS011;1456;51.840;12.184;2024-03-17T06:07:39;8.60;;;4.30;;
2892;SDS011;1456;51.840;12.184;2024-03-17T06:10:05;8.13;;;4.50;;
2892;SDS011;1456;51.840;12.184;2024-03-17T06:12:31;6.23;;;3.93;;
2892;SDS011;1456;51.840;12.184;2024-03-17T06:14:57;8.17;;;4.67;;
2892;SDS011;1456;51.840;12.184;2024-03-17T06:17:23;7.87;;;4.20;;
2892;SDS011;1456;51.840;12.184;2024-03-17T06:19:48;11.83;;;4.17;;
2892;SDS011;1456;51.840;12.184;2024-03-17T06:22:14;11.17;;;4.60;;
2892;SDS011;1456;51.840;12.184;2024-03-17T06:24:39;6.17;;;4.27;;
2892;SDS011;1456;51.840;12.184;2024-03-17T06:27:05;7.03;;;3.70;;
2892;SDS011;1456;51.840;12.184;2024-03-17T06:29:34;8.20;;;3.30;;
2892;SDS011;1456;51.840;12.184;2024-03-17T06:32:00;7.73;;;3.63;;
2892;SDS011;1456;51.840;12.184;2024-03-17T06:34:25;7.60;;;3.47;;
2892;SDS011;1456;51.840;12.184;2024-03-17T06:36:51;11.60;;;3.47;;
2892;SDS011;1456;51.840;12.184;2024-03-17T06:39:17;5.10;;;3.40;;
2892;SDS011;1456;51.840;12.184;2024-03-17T06:41:45;6.30;;;3.10;;
2892;SDS011;1456;51.840;12.184;2024-03-17T06:44:11;6.43;;;3.40;;
2892;SDS011;1456;51.840;12.184;2024-03-17T06:46:36;7.07;;;3.10;;
2892;SDS011;1456;51.840;12.184;2024-03-17T06:49:02;5.80;;;3.40;;
2892;SDS011;1456;51.840;12.184;2024-03-17T06:51:27;5.77;;;3.03;;
2892;SDS011;1456;51.840;12.184;2024-03-17T06:53:53;16.23;;;2.77;;
2892;SDS011;1456;51.840;12.184;2024-03-17T06:56:19;4.20;;;2.00;;
2892;SDS011;1456;51.840;12.184;2024-03-17T06:58:44;7.43;;;3.10;;
2892;SDS011;1456;51.840;12.184;2024-03-17T07:01:10;6.83;;;2.53;;
2892;SDS011;1456;51.840;12.184;2024-03-17T07:03:36;2.73;;;1.97;;
2892;SDS011;1456;51.840;12.184;2024-03-17T07:06:01;13.87;;;4.30;;
2892;SDS011;1456;51.840;12.184;2024-03-17T07:08:28;8.77;;;2.60;;
2892;SDS011;1456;51.840;12.184;2024-03-17T07:11:04;5.40;;;2.83;;
2892;SDS011;1456;51.840;12.184;2024-03-17T07:13:38;6.97;;;2.90;;
2892;SDS011;1456;51.840;12.184;2024-03-17T07:16:04;8.90;;;2.37;;
2892;SDS011;1456;51.840;12.184;2024-03-17T07:18:31;5.73;;;2.13;;
2892;SDS011;1456;51.840;12.184;2024-03-17T07:20:58;7.37;;;3.23;;
2892;SDS011;1456;51.840;12.184;2024-03-17T07:23:25;13.53;;;4.00;;
2892;SDS011;1456;51.840;12.184;2024-03-17T07:25:51;4.37;;;2.10;;
2892;SDS011;1456;51.840;12.184;2024-03-17T07:28:23;8.70;;;2.77;;
2892;SDS011;1456;51.840;12.184;2024-03-17T07:30:49;6.57;;;2.87;;
2892;SDS011;1456;51.840;12.184;2024-03-17T07:33:16;5.27;;;2.37;;
2892;SDS011;1456;51.840;12.184;2024-03-17T07:38:20;6.77;;;2.50;;
2892;SDS011;1456;51.840;12.184;2024-03-17T07:40:54;7.00;;;2.20;;
2892;SDS011;1456;51.840;12.184;2024-03-17T07:43:28;10.60;;;2.27;;
2892;SDS011;1456;51.840;12.184;2024-03-17T07:45:59;12.60;;;2.20;;
2892;SDS011;1456;51.840;12.184;2024-03-17T07:48:29;7.73;;;2.83;;
2892;SDS011;1456;51.840;12.184;2024-03-17T07:50:56;8.63;;;1.90;;
2892;SDS011;1456;51.840;12.184;2024-03-17T07:53:23;19.87;;;2.23;;
2892;SDS011;1456;51.840;12.184;2024-03-17T07:56:11;8.87;;;2.20;;
2892;SDS011;1456;51.840;12.184;2024-03-17T07:58:36;7.60;;;1.77;;
2892;SDS011;1456;51.840;12.184;2024-03-17T08:01:04;10.70;;;1.87;;
2892;SDS011;1456;51.840;12.184;2024-03-17T08:03:40;5.50;;;1.63;;
2892;SDS011;1456;51.840;12.184;2024-03-17T08:06:10;3.67;;;1.93;;
2892;SDS011;1456;51.840;12.184;2024-03-17T08:08:36;9.53;;;2.50;;
2892;SDS011;1456;51.840;12.184;2024-03-17T08:11:02;10.20;;;2.30;;
2892;SDS011;1456;51.840;12.184;2024-03-17T08:13:32;5.77;;;2.43;;
2892;SDS011;1456;51.840;12.184;2024-03-17T08:16:03;11.20;;;2.60;;
2892;SDS011;1456;51.840;12.184;2024-03-17T08:18:35;6.43;;;2.87;;
2892;SDS011;1456;51.840;12.184;2024-03-17T08:21:02;5.90;;;2.53;;
2892;SDS011;1456;51.840;12.184;2024-03-17T08:23:31;6.30;;;2.70;;
2892;SDS011;1456;51.840;12.184;2024-03-17T08:25:59;4.87;;;2.93;;
2892;SDS011;1456;51.840;12.184;2024-03-17T08:28:26;6.60;;;2.37;;
2892;SDS011;1456;51.840;12.184;2024-03-17T08:30:59;5.53;;;2.37;;
2892;SDS011;1456;51.840;12.184;2024-03-17T08:33:26;6.63;;;3.00;;
2892;SDS011;1456;51.840;12.184;2024-03-17T08:35:59;6.20;;;2.40;;
2892;SDS011;1456;51.840;12.184;2024-03-17T08:38:31;6.23;;;1.90;;
2892;SDS011;1456;51.840;12.184;2024-03-17T08:40:58;5.70;;;1.57;;
2892;SDS011;1456;51.840;12.184;2024-03-17T08:43:31;8.80;;;2.40;;
2892;SDS011;1456;51.840;12.184;2024-03-17T08:46:01;5.90;;;1.83;;
2892;SDS011;1456;51.840;12.184;2024-03-17T08:48:28;9.60;;;1.83;;
2892;SDS011;1456;51.840;12.184;2024-03-17T08:50:55;3.53;;;1.40;;
2892;SDS011;1456;51.840;12.184;2024-03-17T08:53:21;10.67;;;2.40;;
2892;SDS011;1456;51.840;12.184;2024-03-17T08:55:48;6.20;;;2.37;;
2892;SDS011;1456;51.840;12.184;2024-03-17T08:58:14;4.77;;;2.13;;
2892;SDS011;1456;51.840;12.184;2024-03-17T09:00:40;5.10;;;2.30;;
2892;SDS011;1456;51.840;12.184;2024-03-17T09:03:08;11.90;;;3.60;;
2892;SDS011;1456;51.840;12.184;2024-03-17T09:05:36;7.93;;;2.90;;
2892;SDS011;1456;51.840;12.184;2024-03-17T09:08:02;4.60;;;3.13;;
2892;SDS011;1456;51.840;12.184;2024-03-17T09:10:28;4.80;;;3.77;;
2892;SDS011;1456;51.840;12.184;2024-03-17T09:12:54;9.57;;;4.73;;
2892;SDS011;1456;51.840;12.184;2024-03-17T09:15:19;7.03;;;4.37;;
2892;SDS011;1456;51.840;12.184;2024-03-17T09:17:45;5.40;;;5.10;;
2892;SDS011;1456;51.840;12.184;2024-03-17T09:20:14;7.13;;;4.93;;
2892;SDS011;1456;51.840;12.184;2024-03-17T09:22:40;4.93;;;4.40;;
2892;SDS011;1456;51.840;12.184;2024-03-17T09:25:06;5.50;;;5.10;;
2892;SDS011;1456;51.840;12.184;2024-03-17T09:27:32;6.20;;;5.53;;
2892;SDS011;1456;51.840;12.184;2024-03-17T09:29:59;8.13;;;5.23;;
2892;SDS011;1456;51.840;12.184;2024-03-17T09:32:25;7.27;;;5.87;;
2892;SDS011;1456;51.840;12.184;2024-03-17T09:34:51;5.90;;;5.50;;
2892;SDS011;1456;51.840;12.184;2024-03-17T09:37:16;13.83;;;13.17;;
2892;SDS011;1456;51.840;12.184;2024-03-17T09:39:42;18.37;;;16.50;;
2892;SDS011;1456;51.840;12.184;2024-03-17T09:42:15;14.43;;;13.70;;
2892;SDS011;1456;51.840;12.184;2024-03-17T09:44:45;14.97;;;14.17;;
2892;SDS011;1456;51.840;12.184;2024-03-17T09:47:15;14.53;;;13.90;;
2892;SDS011;1456;51.840;12.184;2024-03-17T09:49:46;14.10;;;13.30;;
2892;SDS011;1456;51.840;12.184;2024-03-17T09:52:18;6.53;;;5.90;;
2892;SDS011;1456;51.840;12.184;2024-03-17T09:54:53;6.23;;;5.93;;
2892;SDS011;1456;51.840;12.184;2024-03-17T09:57:32;6.13;;;5.80;;
2892;SDS011;1456;51.840;12.184;2024-03-17T10:00:00;7.30;;;6.70;;
2892;SDS011;1456;51.840;12.184;2024-03-17T10:02:41;6.23;;;5.83;;
2892;SDS011;1456;51.840;12.184;2024-03-17T10:05:25;6.97;;;6.23;;
2892;SDS011;1456;51.840;12.184;2024-03-17T10:07:51;11.53;;;6.97;;
2892;SDS011;1456;51.840;12.184;2024-03-17T10:10:17;7.63;;;7.17;;
2892;SDS011;1456;51.840;12.184;2024-03-17T10:12:43;7.70;;;7.20;;
2892;SDS011;1456;51.840;12.184;2024-03-17T10:15:14;7.97;;;7.40;;
2892;SDS011;1456;51.840;12.184;2024-03-17T10:17:39;8.20;;;7.63;;
2892;SDS011;1456;51.840;12.184;2024-03-17T10:20:12;8.37;;;7.97;;
2892;SDS011;1456;51.840;12.184;2024-03-17T10:23:00;9.20;;;8.43;;
2892;SDS011;1456;51.840;12.184;2024-03-17T10:25:34;8.27;;;7.67;;
2892;SDS011;1456;51.840;12.184;2024-03-17T10:28:04;8.47;;;8.17;;
2892;SDS011;1456;51.840;12.184;2024-03-17T10:30:39;8.47;;;8.00;;
2892;SDS011;1456;51.840;12.184;2024-03-17T10:33:05;8.03;;;7.90;;
2892;SDS011;1456;51.840;12.184;2024-03-17T10:38:00;10.57;;;10.00;;
2892;SDS011;1456;51.840;12.184;2024-03-17T10:40:28;10.07;;;9.47;;
2892;SDS011;1456;51.840;12.184;2024-03-17T10:42:55;9.63;;;9.13;;
2892;SDS011;1456;51.840;12.184;2024-03-17T10:45:21;10.20;;;9.40;;
2892;SDS011;1456;51.840;12.184;2024-03-17T10:47:50;9.70;;;9.00;;
2892;SDS011;1456;51.840;12.184;2024-03-17T10:50:17;9.20;;;8.83;;
2892;SDS011;1456;51.840;12.184;2024-03-17T10:52:45;9.33;;;8.63;;
2892;SDS011;1456;51.840;12.184;2024-03-17T10:55:19;9.07;;;8.60;;
2892;SDS011;1456;51.840;12.184;2024-03-17T10:57:45;8.03;;;7.83;;
2892;SDS011;1456;51.840;12.184;2024-03-17T11:00:15;9.73;;;9.13;;
2892;SDS011;1456;51.840;12.184;2024-03-17T11:02:47;9.43;;;8.90;;
2892;SDS011;1456;51.840;12.184;2024-03-17T11:05:18;9.27;;;8.67;;
2892;SDS011;1456;51.840;12.184;2024-03-17T11:07:46;8.20;;;7.67;;
2892;SDS011;1456;51.840;12.184;2024-03-17T11:10:18;8.40;;;7.90;;
2892;SDS011;1456;51.840;12.184;2024-03-17T11:12:56;9.50;;;8.70;;
2892;SDS011;1456;51.840;12.184;2024-03-17T11:17:55;15.80;;;15.13;;
2892;SDS011;1456;51.840;12.184;2024-03-17T11:20:42;12.63;;;11.80;;
2892;SDS011;1456;51.840;12.184;2024-03-17T11:23:08;11.90;;;10.83;;
2892;SDS011;1456;51.840;12.184;2024-03-17T11:28:00;14.20;;;13.50;;
2892;SDS011;1456;51.840;12.184;2024-03-17T11:38:59;10.77;;;10.30;;
2892;SDS011;1456;51.840;12.184;2024-03-17T11:47:02;9.73;;;9.20;;
2892;SDS011;1456;51.840;12.184;2024-03-17T11:51:55;10.70;;;10.20;;
2892;SDS011;1456;51.840;12.184;2024-03-17T11:54:24;11.67;;;11.13;;
2892;SDS011;1456;51.840;12.184;2024-03-17T11:56:52;12.20;;;11.60;;
2892;SDS011;1456;51.840;12.184;2024-03-17T11:59:20;11.30;;;10.70;;
2892;SDS011;1456;51.840;12.184;2024-03-17T12:01:47;10.87;;;10.17;;
2892;SDS011;1456;51.840;12.184;2024-03-17T12:04:14;11.43;;;10.80;;
2892;SDS011;1456;51.840;12.184;2024-03-17T12:06:47;10.00;;;9.70;;
2892;SDS011;1456;51.840;12.184;2024-03-17T12:11:47;11.80;;;11.30;;
2892;SDS011;1456;51.840;12.184;2024-03-17T12:14:18;11.80;;;11.20;;
2892;SDS011;1456;51.840;12.184;2024-03-17T12:16:48;12.50;;;11.90;;
2892;SDS011;1456;51.840;12.184;2024-03-17T12:19:18;13.03;;;12.50;;
2892;SDS011;1456;51.840;12.184;2024-03-17T12:21:45;12.03;;;11.33;;
2892;SDS011;1456;51.840;12.184;2024-03-17T12:24:14;13.10;;;12.20;;
2892;SDS011;1456;51.840;12.184;2024-03-17T12:26:44;14.00;;;12.63;;
2892;SDS011;1456;51.840;12.184;2024-03-17T12:29:24;14.70;;;13.57;;
2892;SDS011;1456;51.840;12.184;2024-03-17T12:31:53;12.97;;;12.13;;
2892;SDS011;1456;51.840;12.184;2024-03-17T12:34:20;26.13;;;24.97;;
2892;SDS011;1456;51.840;12.184;2024-03-17T12:36:47;26.70;;;25.37;;
2892;SDS011;1456;51.840;12.184;2024-03-17T12:42:06;28.77;;;27.27;;
2892;SDS011;1456;51.840;12.184;2024-03-17T12:47:22;14.67;;;13.73;;
2892;SDS011;1456;51.840;12.184;2024-03-17T12:49:49;15.93;;;15.13;;
2892;SDS011;1456;51.840;12.184;2024-03-17T12:52:29;15.77;;;15.17;;
2892;SDS011;1456;51.840;12.184;2024-03-17T12:54:56;17.37;;;16.07;;
2892;SDS011;1456;51.840;12.184;2024-03-17T12:57:51;15.60;;;14.80;;
2892;SDS011;1456;51.840;12.184;2024-03-17T13:03:35;15.97;;;14.97;;
2892;SDS011;1456;51.840;12.184;2024-03-17T13:06:02;15.63;;;14.83;;
2892;SDS011;1456;51.840;12.184;2024-03-17T13:08:31;16.93;;;15.90;;
2892;SDS011;1456;51.840;12.184;2024-03-17T13:10:58;16.33;;;15.13;;
2892;SDS011;1456;51.840;12.184;2024-03-17T13:13:24;16.03;;;15.10;;
2892;SDS011;1456;51.840;12.184;2024-03-17T13:15:49;16.17;;;14.93;;
2892;SDS011;1456;51.840;12.184;2024-03-17T13:18:19;15.90;;;14.63;;
2892;SDS011;1456;51.840;12.184;2024-03-17T13:20:45;13.93;;;13.23;;
2892;SDS011;1456;51.840;12.184;2024-03-17T13:23:12;14.57;;;13.80;;
2892;SDS011;1456;51.840;12.184;2024-03-17T13:25:38;15.20;;;14.40;;
2892;SDS011;1456;51.840;12.184;2024-03-17T13:28:04;17.43;;;16.40;;
2892;SDS011;1456;51.840;12.184;2024-03-17T13:30:31;18.30;;;17.10;;
2892;SDS011;1456;51.840;12.184;2024-03-17T13:32:58;16.77;;;15.80;;
2892;SDS011;1456;51.840;12.184;2024-03-17T13:35:28;15.90;;;15.13;;
2892;SDS011;1456;51.840;12.184;2024-03-17T13:37:55;14.70;;;14.00;;
2892;SDS011;1456;51.840;12.184;2024-03-17T13:40:24;15.57;;;14.87;;
2892;SDS011;1456;51.840;12.184;2024-03-17T13:42:51;16.20;;;15.20;;
2892;SDS011;1456;51.840;12.184;2024-03-17T13:45:18;28.80;;;27.30;;
2892;SDS011;1456;51.840;12.184;2024-03-17T13:47:50;28.77;;;27.60;;
2892;SDS011;1456;51.840;12.184;2024-03-17T13:50:20;26.17;;;25.13;;
2892;SDS011;1456;51.840;12.184;2024-03-17T13:52:46;27.33;;;25.93;;
2892;SDS011;1456;51.840;12.184;2024-03-17T13:55:13;25.17;;;24.17;;
2892;SDS011;1456;51.840;12.184;2024-03-17T13:57:45;14.87;;;13.80;;
2892;SDS011;1456;51.840;12.184;2024-03-17T14:00:12;15.70;;;14.70;;
2892;SDS011;1456;51.840;12.184;2024-03-17T14:02:44;14.23;;;13.43;;
2892;SDS011;1456;51.840;12.184;2024-03-17T14:05:14;15.10;;;14.30;;
2892;SDS011;1456;51.840;12.184;2024-03-17T14:07:41;15.33;;;14.70;;
2892;SDS011;1456;51.840;12.184;2024-03-17T14:10:08;15.50;;;14.90;;
2892;SDS011;1456;51.840;12.184;2024-03-17T14:12:36;15.60;;;14.80;;
2892;SDS011;1456;51.840;12.184;2024-03-17T14:15:05;16.87;;;15.90;;
2892;SDS011;1456;51.840;12.184;2024-03-17T14:17:32;16.10;;;15.20;;
2892;SDS011;1456;51.840;12.184;2024-03-17T14:19:58;16.70;;;15.97;;
2892;SDS011;1456;51.840;12.184;2024-03-17T14:22:24;17.10;;;16.27;;
2892;SDS011;1456;51.840;12.184;2024-03-17T14:24:49;15.67;;;14.97;;
2892;SDS011;1456;51.840;12.184;2024-03-17T14:27:15;16.60;;;16.00;;
2892;SDS011;1456;51.840;12.184;2024-03-17T14:29:42;15.87;;;14.93;;
2892;SDS011;1456;51.840;12.184;2024-03-17T14:32:08;16.33;;;15.50;;
2892;SDS011;1456;51.840;12.184;2024-03-17T14:34:34;16.27;;;15.20;;
2892;SDS011;1456;51.840;12.184;2024-03-17T14:37:02;16.50;;;15.60;;
2892;SDS011;1456;51.840;12.184;2024-03-17T14:39:28;16.90;;;15.90;;
2892;SDS011;1456;51.840;12.184;2024-03-17T14:41:54;16.83;;;15.83;;
2892;SDS011;1456;51.840;12.184;2024-03-17T14:44:20;16.93;;;15.97;;
2892;SDS011;1456;51.840;12.184;2024-03-17T14:46:47;19.67;;;18.40;;
2892;SDS011;1456;51.840;12.184;2024-03-17T14:49:14;17.90;;;16.90;;
2892;SDS011;1456;51.840;12.184;2024-03-17T14:51:40;16.07;;;15.27;;
2892;SDS011;1456;51.840;12.184;2024-03-17T14:54:06;16.00;;;15.10;;
2892;SDS011;1456;51.840;12.184;2024-03-17T14:56:33;19.40;;;18.40;;
2892;SDS011;1456;51.840;12.184;2024-03-17T14:58:58;28.93;;;27.43;;
2892;SDS011;1456;51.840;12.184;2024-03-17T15:01:24;29.03;;;27.70;;
2892;SDS011;1456;51.840;12.184;2024-03-17T15:03:51;28.93;;;27.73;;
2892;SDS011;1456;51.840;12.184;2024-03-17T15:06:16;19.33;;;18.33;;
2892;SDS011;1456;51.840;12.184;2024-03-17T15:08:43;15.73;;;14.97;;
2892;SDS011;1456;51.840;12.184;2024-03-17T15:11:09;17.03;;;15.90;;
2892;SDS011;1456;51.840;12.184;2024-03-17T15:13:35;17.37;;;16.20;;
2892;SDS011;1456;51.840;12.184;2024-03-17T15:16:04;29.53;;;28.03;;
2892;SDS011;1456;51.840;12.184;2024-03-17T15:18:31;27.37;;;26.10;;
2892;SDS011;1456;51.840;12.184;2024-03-17T15:20:58;16.60;;;15.47;;
2892;SDS011;1456;51.840;12.184;2024-03-17T15:23:30;16.57;;;15.43;;
2892;SDS011;1456;51.840;12.184;2024-03-17T15:26:02;26.33;;;24.93;;
2892;SDS011;1456;51.840;12.184;2024-03-17T15:28:38;25.13;;;23.80;;
2892;SDS011;1456;51.840;12.184;2024-03-17T15:31:05;24.53;;;23.43;;
2892;SDS011;1456;51.840;12.184;2024-03-17T15:33:34;15.43;;;14.63;;
2892;SDS011;1456;51.840;12.184;2024-03-17T15:36:05;15.60;;;14.90;;
2892;SDS011;1456;51.840;12.184;2024-03-17T15:38:32;15.80;;;14.77;;
2892;SDS011;1456;51.840;12.184;2024-03-17T15:40:59;16.10;;;15.10;;